Livona, North Dakota
Current Conditions -  °F | °C
As of 7:52 PM on Saturday 22 Nov 2014 (Local Time) from KBIS Reporting Station
Clear Clear  
Wind Chill: 30°   Ceiling: Unl
Heat Index: 34°   Visibility: 10mi
Dew Point: 32°   Wind: 5mph
Humidity: 92%   Direction: 210°SSW
Pressure: 29.34"   Gusts: NA
Location:  46.7287°N, 100.616°W
Report Text: KBIS 230152Z 21004KT 10SM CLR 01/00 A2934 RMK AO2 RAB01E29 SLP953 P0000 T00110000
Loading
Personal Weather Stations






























Interactive Weather Map New forecast layout! Learn more

10-Day Weather Forecast

Advertisements
Track Severe Weather on mobile